Time;durP1;ratioP1;P1;durP2;ratioP2;P2;SDS_P1;SDS_P2;PMS_P1;PMS_P2;Temp;Humidity;BMP_temperature;BMP_pressure;BME280_temperature;BME280_humidity;BME280_pressure;Samples;Min_cycle;Max_cycle;Signal;HPM_P1;HPM_P2
2022/09/22 00:01:08;;;;;;;5.08;3.47;;;;;;;6.76;100.00;99178.39;1654411;85;21232;-75
2022/09/22 00:03:41;;;;;;;4.40;3.85;;;;;;;6.73;100.00;99178.04;1646055;85;21567;-74
2022/09/22 00:06:19;;;;;;;4.47;4.08;;;;;;;6.70;100.00;99178.13;1657112;85;21071;-74
2022/09/22 00:08:50;;;;;;;4.70;3.95;;;;;;;6.68;100.00;99181.65;1685113;84;21090;-74
2022/09/22 00:11:21;;;;;;;4.95;3.42;;;;;;;6.68;100.00;99179.91;1679351;84;21121;-74
2022/09/22 00:13:51;;;;;;;4.12;3.70;;;;;;;6.70;100.00;99180.71;1663621;84;20970;-74
2022/09/22 00:16:27;;;;;;;4.10;3.65;;;;;;;6.74;100.00;99183.61;1651793;86;21804;-74
2022/09/22 00:18:53;;;;;;;4.80;3.75;;;;;;;6.76;100.00;99183.13;1708291;82;21010;-74
2022/09/22 00:21:22;;;;;;;4.42;3.37;;;;;;;6.78;100.00;99192.13;1697452;83;20954;-74
2022/09/22 00:23:48;;;;;;;4.70;3.80;;;;;;;6.76;100.00;99183.13;1694668;83;21679;-73
2022/09/22 00:26:18;;;;;;;7.30;4.03;;;;;;;6.76;100.00;99178.39;1701416;83;20963;-74
2022/09/22 00:28:47;;;;;;;3.85;3.33;;;;;;;6.76;100.00;99175.37;1679458;82;21753;-74
2022/09/22 00:31:17;;;;;;;4.50;4.10;;;;;;;6.77;100.00;99178.80;1689603;83;21117;-71
2022/09/22 00:33:45;;;;;;;5.15;4.65;;;;;;;6.79;100.00;99179.59;1712288;83;21019;-73
2022/09/22 00:36:14;;;;;;;6.35;4.25;;;;;;;6.79;100.00;99185.61;1703601;82;21092;-69
2022/09/22 00:38:42;;;;;;;5.80;4.10;;;;;;;6.79;100.00;99181.73;1696915;83;21112;-74
2022/09/22 00:41:20;;;;;;;3.85;3.52;;;;;;;6.83;100.00;99183.76;1712039;83;21235;-74
2022/09/22 00:43:49;;;;;;;4.87;4.37;;;;;;;6.84;100.00;99179.83;1716584;83;21146;-75
2022/09/22 00:46:29;;;;;;;4.92;4.22;;;;;;;6.84;100.00;99182.42;1707897;83;21057;-74
2022/09/22 00:49:02;;;;;;;3.58;3.25;;;;;;;6.84;100.00;99185.00;1709767;83;20958;-75
2022/09/22 00:51:32;;;;;;;5.45;3.50;;;;;;;6.84;100.00;99185.45;1701502;83;21584;-74
2022/09/22 00:54:01;;;;;;;4.33;3.67;;;;;;;6.87;100.00;99187.95;1693242;83;21174;-75
2022/09/22 00:56:31;;;;;;;4.80;4.00;;;;;;;6.95;100.00;99192.89;1690288;83;21501;-74
2022/09/22 00:59:02;;;;;;;5.15;4.17;;;;;;;7.00;100.00;99197.45;1708806;83;21585;-75
2022/09/22 01:01:28;;;;;;;5.90;3.87;;;;;;;7.03;100.00;99192.19;1676106;83;21023;-75
2022/09/22 01:03:56;;;;;;;3.70;3.37;;;;;;;7.08;100.00;99196.77;1695476;83;20963;-75
2022/09/22 01:06:25;;;;;;;4.37;3.55;;;;;;;7.08;100.00;99195.03;1698541;83;21108;-75
2022/09/22 01:08:53;;;;;;;4.72;4.25;;;;;;;7.10;100.00;99196.28;1711561;83;21069;-73
2022/09/22 01:11:28;;;;;;;5.75;4.20;;;;;;;7.11;100.00;99196.23;1707459;83;21567;-74
2022/09/22 01:44:55;;;;;;;5.03;3.60;;;;;;;7.57;100.00;99193.45;1665809;84;21110;-74
2022/09/22 01:47:33;;;;;;;14.90;4.03;;;;;;;7.56;100.00;99184.84;1683275;84;21550;-74
2022/09/22 01:50:05;;;;;;;9.00;4.25;;;;;;;7.54;100.00;99193.09;1680763;84;21798;-74
2022/09/22 01:52:33;;;;;;;5.08;3.98;;;;;;;7.53;100.00;99190.11;1652491;85;21019;-73
2022/09/22 01:55:18;;;;;;;3.83;3.52;;;;;;;7.53;100.00;99189.27;1651026;85;20956;-73
2022/09/22 01:58:12;;;;;;;7.25;3.75;;;;;;;7.54;100.00;99196.13;1639632;86;21499;-73
2022/09/22 02:00:42;;;;;;;4.33;3.98;;;;;;;7.49;100.00;99194.98;1684043;84;20979;-74
2022/09/22 02:03:13;;;;;;;8.40;4.12;;;;;;;7.48;100.00;99198.91;1648462;85;21145;-74
2022/09/22 02:05:45;;;;;;;4.80;4.33;;;;;;;7.46;100.00;99192.49;1683791;84;21019;-74
2022/09/22 02:08:30;;;;;;;4.17;3.77;;;;;;;7.45;100.00;99189.50;1680460;84;21096;-74
2022/09/22 02:10:57;;;;;;;4.45;4.05;;;;;;;7.43;100.00;99188.70;1635997;84;21038;-73
2022/09/22 02:13:24;;;;;;;7.40;4.97;;;;;;;7.43;100.00;99191.74;1675826;83;21034;-73
2022/09/22 02:16:00;;;;;;;7.17;4.40;;;;;;;7.43;100.00;99192.59;1607818;85;21180;-74
2022/09/22 02:18:44;;;;;;;6.53;4.58;;;;;;;7.46;100.00;99182.14;1645720;84;21176;-73
2022/09/22 02:21:12;;;;;;;4.28;3.87;;;;;;;7.49;100.00;99183.79;1646294;86;20979;-74
2022/09/22 02:23:38;;;;;;;4.80;4.33;;;;;;;7.51;100.00;99182.84;1650899;85;21142;-74
2022/09/22 02:26:05;;;;;;;4.60;4.10;;;;;;;7.53;100.00;99179.76;1633884;85;21120;-74
2022/09/22 02:28:35;;;;;;;5.65;4.17;;;;;;;7.57;100.00;99180.06;1654826;85;21170;-73
2022/09/22 02:31:02;;;;;;;4.35;3.95;;;;;;;7.60;100.00;99178.63;1625702;87;21061;-75
2022/09/22 02:33:29;;;;;;;4.17;3.77;;;;;;;7.61;100.00;99175.59;1651256;84;21050;-73
2022/09/22 02:36:10;;;;;;;5.08;4.67;;;;;;;7.62;100.00;99176.00;1677858;84;21015;-74
2022/09/22 02:38:43;;;;;;;4.97;4.58;;;;;;;7.65;100.00;99169.87;1654529;85;21642;-74
2022/09/22 02:41:27;;;;;;;4.65;4.20;;;;;;;7.65;100.00;99173.75;1691319;84;26982;-73
2022/09/22 02:44:05;;;;;;;4.33;3.92;;;;;;;7.68;100.00;99191.77;1665742;85;21019;-73
2022/09/22 02:46:42;;;;;;;4.20;3.85;;;;;;;7.70;100.00;99186.09;1665296;84;21058;-73
2022/09/22 02:49:14;;;;;;;4.83;4.40;;;;;;;7.74;100.00;99188.98;1668539;85;21233;-73
2022/09/22 02:51:41;;;;;;;5.22;4.72;;;;;;;7.78;100.00;99194.46;1677915;84;21458;-73
2022/09/22 02:54:08;;;;;;;4.25;3.85;;;;;;;7.81;100.00;99187.85;1684639;84;21256;-74
2022/09/22 02:56:35;;;;;;;4.60;4.20;;;;;;;7.85;100.00;99186.86;1660726;84;21106;-73
2022/09/22 02:59:01;;;;;;;4.72;4.33;;;;;;;7.85;100.00;99190.30;1681318;84;21088;-73
2022/09/22 03:01:28;;;;;;;4.80;4.40;;;;;;;7.85;100.00;99190.73;1687298;84;21013;-74
2022/09/22 03:03:55;;;;;;;3.95;3.55;;;;;;;7.86;100.00;99191.14;1688463;84;21124;-73
2022/09/22 03:06:21;;;;;;;4.97;4.37;;;;;;;7.87;100.00;99188.95;1651948;84;22065;-73
2022/09/22 03:08:48;;;;;;;4.03;3.62;;;;;;;7.85;100.00;99190.30;1678248;84;21420;-74
2022/09/22 03:11:14;;;;;;;4.58;4.17;;;;;;;7.83;100.00;99180.88;1687659;84;21011;-73
2022/09/22 03:13:41;;;;;;;4.35;3.95;;;;;;;7.80;100.00;99186.16;1661263;84;21063;-73
2022/09/22 03:16:08;;;;;;;4.08;3.77;;;;;;;7.79;100.00;99192.27;1667241;84;21002;-73
2022/09/22 03:18:35;;;;;;;4.30;3.83;;;;;;;7.81;100.00;99189.15;1678827;84;21490;-73
2022/09/22 03:21:01;;;;;;;4.60;4.20;;;;;;;7.82;100.00;99195.57;1675230;84;21105;-73
2022/09/22 03:23:28;;;;;;;5.03;4.53;;;;;;;7.80;100.00;99196.52;1666657;84;21062;-73
2022/09/22 03:25:54;;;;;;;4.85;4.35;;;;;;;7.82;100.00;99200.75;1675719;84;21002;-73
2022/09/22 03:28:21;;;;;;;4.28;3.87;;;;;;;7.86;100.00;99205.38;1678166;84;21077;-73
2022/09/22 03:30:48;;;;;;;3.95;3.65;;;;;;;7.88;100.00;99203.14;1687548;84;21240;-73
2022/09/22 03:33:15;;;;;;;4.25;3.85;;;;;;;7.85;100.00;99200.65;1675937;84;21038;-73
2022/09/22 03:35:42;;;;;;;4.15;3.75;;;;;;;7.84;100.00;99207.17;1679656;84;21541;-73
2022/09/22 03:38:09;;;;;;;3.95;3.65;;;;;;;7.82;100.00;99208.52;1644224;85;21464;-73
2022/09/22 03:40:36;;;;;;;4.10;3.80;;;;;;;7.83;100.00;99207.62;1673047;84;20981;-73
2022/09/22 03:43:09;;;;;;;5.10;4.58;;;;;;;7.86;100.00;99220.91;1667538;84;21225;-73
2022/09/22 03:45:36;;;;;;;4.53;4.12;;;;;;;7.85;100.00;99213.59;1714355;82;20974;-73
2022/09/22 03:48:03;;;;;;;5.05;4.55;;;;;;;7.85;100.00;99212.75;1687522;82;21104;-73
2022/09/22 03:50:29;;;;;;;5.05;4.55;;;;;;;7.85;100.00;99217.48;1701231;83;21659;-73
2022/09/22 03:52:56;;;;;;;4.30;3.90;;;;;;;7.86;100.00;99224.80;1673068;83;21061;-72
2022/09/22 03:55:24;;;;;;;5.00;4.28;;;;;;;7.88;100.00;99229.03;1685531;83;21206;-72
2022/09/22 03:57:51;;;;;;;5.00;4.12;;;;;;;7.93;100.00;99228.43;1697852;83;21105;-72
2022/09/22 04:00:17;;;;;;;4.65;4.25;;;;;;;8.00;100.00;99223.86;1707716;83;20970;-72
2022/09/22 04:02:44;;;;;;;4.30;3.80;;;;;;;8.05;100.00;99227.59;1712083;82;21057;-72
2022/09/22 04:05:11;;;;;;;4.97;4.58;;;;;;;8.07;100.00;99225.80;1713362;82;20983;-72
2022/09/22 04:07:38;;;;;;;5.80;5.30;;;;;;;8.11;100.00;99228.23;1709716;83;22154;-72
2022/09/22 04:10:06;;;;;;;5.30;4.85;;;;;;;8.11;100.00;99236.45;1689106;83;21013;-74
2022/09/22 04:12:36;;;;;;;5.58;4.95;;;;;;;8.09;100.00;99240.84;1712222;83;21083;-73
2022/09/22 04:15:13;;;;;;;5.37;4.87;;;;;;;8.10;100.00;99238.20;1705962;83;21076;-72
2022/09/22 04:17:39;;;;;;;5.92;5.33;;;;;;;8.09;100.00;99242.98;1696288;82;21083;-72
2022/09/22 04:20:08;;;;;;;6.45;5.85;;;;;;;8.04;100.00;99240.99;1700491;82;21704;-72
2022/09/22 04:22:35;;;;;;;6.22;5.70;;;;;;;8.00;100.00;99241.99;1704258;82;20966;-72
2022/09/22 04:25:03;;;;;;;6.15;5.40;;;;;;;8.01;100.00;99233.33;1699657;82;21082;-72
2022/09/22 04:27:30;;;;;;;6.17;5.58;;;;;;;8.02;100.00;99237.61;1719022;83;21021;-73
2022/09/22 04:29:56;;;;;;;6.03;5.53;;;;;;;8.06;100.00;99239.64;1717075;82;21446;-72
2022/09/22 04:32:25;;;;;;;6.75;5.70;;;;;;;8.10;100.00;99235.61;1715161;83;21242;-72
2022/09/22 04:34:51;;;;;;;6.22;5.72;;;;;;;8.16;100.00;99235.41;1713040;83;21089;-73
2022/09/22 04:37:18;;;;;;;5.83;5.28;;;;;;;8.24;100.00;99235.11;1708276;83;20974;-73
2022/09/22 04:39:44;;;;;;;5.97;5.47;;;;;;;8.27;100.00;99225.94;1715450;83;21192;-73
2022/09/22 04:42:11;;;;;;;6.30;5.80;;;;;;;8.27;100.00;99225.48;1705035;82;21025;-72
2022/09/22 04:44:38;;;;;;;6.47;5.87;;;;;;;8.28;100.00;99223.30;1695452;82;21219;-72
2022/09/22 04:47:05;;;;;;;8.45;7.53;;;;;;;8.28;100.00;99228.92;1696771;83;21046;-73
2022/09/22 04:49:32;;;;;;;6.95;6.25;;;;;;;8.29;100.00;99222.39;1701346;83;21065;-72
2022/09/22 04:51:59;;;;;;;7.40;5.92;;;;;;;8.32;100.00;99227.08;1708581;82;20970;-73
2022/09/22 04:54:25;;;;;;;7.60;7.00;;;;;;;8.33;100.00;99224.47;1696019;82;21022;-73
2022/09/22 04:56:52;;;;;;;7.45;6.83;;;;;;;8.34;100.00;99223.56;1700206;83;21089;-73
2022/09/22 04:59:20;;;;;;;7.47;6.78;;;;;;;8.35;100.00;99215.34;1679389;83;21127;-73
2022/09/22 05:01:48;;;;;;;7.70;7.00;;;;;;;8.39;100.00;99213.04;1655979;85;21053;-72
2022/09/22 05:04:15;;;;;;;8.78;7.97;;;;;;;8.44;100.00;99219.72;1696500;82;21084;-73
2022/09/22 05:06:42;;;;;;;8.45;7.65;;;;;;;8.48;100.00;99225.64;1669132;84;20981;-73
2022/09/22 05:09:08;;;;;;;8.03;7.30;;;;;;;8.50;100.00;99222.55;1651353;85;21218;-72
2022/09/22 05:11:35;;;;;;;8.18;7.05;;;;;;;8.52;100.00;99222.04;1700123;83;21014;-73
2022/09/22 05:14:02;;;;;;;7.35;6.75;;;;;;;8.54;100.00;99221.53;1742678;81;21060;-73
2022/09/22 05:16:30;;;;;;;6.60;5.90;;;;;;;8.54;100.00;99226.72;1728576;81;21057;-73
2022/09/22 05:18:57;;;;;;;6.40;5.70;;;;;;;8.50;100.00;99227.28;1702449;81;21068;-73
2022/09/22 05:21:44;;;;;;;5.85;5.35;;;;;;;8.45;100.00;99231.78;1683888;82;21739;-72
2022/09/22 05:24:13;;;;;;;6.45;5.85;;;;;;;8.40;100.00;99231.55;1689627;83;21184;-73
2022/09/22 05:26:40;;;;;;;8.90;7.97;;;;;;;8.39;100.00;99229.44;1702426;82;21070;-72
2022/09/22 05:29:09;;;;;;;7.95;7.25;;;;;;;8.43;100.00;99225.80;1700433;82;21141;-71
2022/09/22 05:31:42;;;;;;;6.33;5.58;;;;;;;8.50;100.00;99227.73;1695294;81;21517;-72
2022/09/22 05:34:09;;;;;;;6.72;5.67;;;;;;;8.56;100.00;99230.95;1703343;82;21468;-72
2022/09/22 05:36:39;;;;;;;6.62;5.95;;;;;;;8.59;100.00;99238.59;1705749;83;21122;-72
2022/09/22 05:39:06;;;;;;;6.12;5.53;;;;;;;8.60;100.00;99236.39;1700796;81;22232;-72
2022/09/22 05:41:33;;;;;;;8.68;6.78;;;;;;;8.59;100.00;99242.95;1680680;84;21029;-72
2022/09/22 05:44:01;;;;;;;5.55;5.00;;;;;;;8.52;100.00;99244.92;1687742;81;21073;-72
2022/09/22 05:46:28;;;;;;;5.30;4.80;;;;;;;8.50;100.00;99249.77;1737304;82;21247;-72
2022/09/22 05:48:56;;;;;;;8.38;5.72;;;;;;;8.46;100.00;99243.84;1720176;82;21175;-73
2022/09/22 05:51:23;;;;;;;6.80;6.03;;;;;;;8.48;100.00;99243.78;1714418;82;21576;-73
2022/09/22 05:53:49;;;;;;;6.30;5.70;;;;;;;8.49;100.00;99239.00;1681630;83;21067;-72
2022/09/22 05:56:16;;;;;;;7.45;5.55;;;;;;;8.52;100.00;99247.52;1667161;83;21096;-72
2022/09/22 05:58:43;;;;;;;6.83;5.65;;;;;;;8.58;100.00;99252.48;1695086;83;21228;-72
2022/09/22 06:01:09;;;;;;;7.17;5.20;;;;;;;8.63;100.00;99247.10;1709661;82;21583;-72
2022/09/22 06:03:36;;;;;;;7.75;6.97;;;;;;;8.68;100.00;99251.67;1709036;83;21143;-72
2022/09/22 06:06:04;;;;;;;6.70;5.67;;;;;;;8.72;100.00;99251.11;1654191;84;21041;-72
2022/09/22 06:08:31;;;;;;;11.30;4.95;;;;;;;8.77;100.00;99253.94;1696014;82;20979;-72
2022/09/22 06:10:57;;;;;;;18.82;5.22;;;;;;;8.86;100.00;99252.28;1660080;84;21821;-72
2022/09/22 06:13:26;;;;;;;8.60;5.47;;;;;;;8.94;100.00;99252.84;1668010;82;21061;-73
2022/09/22 06:15:52;;;;;;;10.48;6.17;;;;;;;9.01;100.00;99261.21;1697625;83;21053;-72
2022/09/22 06:18:20;;;;;;;7.53;5.20;;;;;;;9.06;100.00;99253.27;1709890;83;21017;-73
2022/09/22 06:20:47;;;;;;;5.17;4.67;;;;;;;9.08;100.00;99248.86;1716256;82;21065;-73
2022/09/22 06:23:15;;;;;;;4.72;4.15;;;;;;;9.11;100.00;99247.00;1714992;83;21460;-71
2022/09/22 06:25:43;;;;;;;8.10;3.77;;;;;;;9.14;100.00;99257.27;1696121;82;21037;-71
2022/09/22 06:28:12;;;;;;;4.50;3.80;;;;;;;9.18;100.00;99257.99;1688370;81;21010;-72
2022/09/22 06:30:40;;;;;;;7.53;3.62;;;;;;;9.22;100.00;99260.83;1736007;81;21109;-74
2022/09/22 06:33:08;;;;;;;6.40;4.05;;;;;;;9.25;100.00;99268.50;1721758;81;21040;-72
2022/09/22 06:35:36;;;;;;;3.72;3.40;;;;;;;9.28;100.00;99274.42;1720551;82;21140;-73
2022/09/22 06:38:05;;;;;;;5.22;4.03;;;;;;;9.34;100.00;99268.16;1701224;81;21041;-74
2022/09/22 06:40:37;;;;;;;6.45;4.12;;;;;;;9.35;100.00;99266.41;1696317;83;21440;-73
2022/09/22 06:43:10;;;;;;;5.17;4.00;;;;;;;9.35;100.00;99263.36;1692297;83;21007;-73
2022/09/22 06:45:33;;;;;;;4.17;3.77;;;;;;;9.38;100.00;99268.44;1711447;82;21102;-72
2022/09/22 06:48:02;;;;;;;4.03;3.35;;;;;;;9.41;100.00;99265.69;1677827;83;21205;-73
2022/09/22 06:50:31;;;;;;;11.83;5.35;;;;;;;9.42;100.00;99262.64;1639895;84;21622;-74
2022/09/22 06:53:03;;;;;;;10.25;5.22;;;;;;;9.46;100.00;99263.77;1683621;83;21026;-73
2022/09/22 06:55:30;;;;;;;4.80;4.23;;;;;;;9.52;100.00;99264.83;1674427;83;21089;-71
2022/09/22 06:58:00;;;;;;;8.88;4.35;;;;;;;9.57;100.00;99266.78;1702590;82;21635;-72
2022/09/22 07:00:31;;;;;;;7.90;3.58;;;;;;;9.64;100.00;99263.47;1703707;82;21077;-73
2022/09/22 07:03:13;;;;;;;14.25;4.42;;;;;;;9.69;100.00;99270.63;1710920;82;21541;-72
2022/09/22 07:05:42;;;;;;;4.17;3.75;;;;;;;9.73;100.00;99262.26;1703979;82;21053;-73
2022/09/22 07:08:09;;;;;;;9.33;4.17;;;;;;;9.77;100.00;99266.42;1656520;82;21567;-72
2022/09/22 07:10:36;;;;;;;5.62;3.58;;;;;;;9.84;100.00;99261.34;1687045;82;21033;-73
2022/09/22 07:13:04;;;;;;;12.20;4.50;;;;;;;9.97;100.00;99263.38;1689544;84;21198;-72
2022/09/22 07:15:34;;;;;;;5.70;3.98;;;;;;;10.13;100.00;99258.83;1692213;83;21460;-72
2022/09/22 07:18:02;;;;;;;6.83;3.40;;;;;;;10.28;100.00;99259.03;1691179;83;21617;-72
2022/09/22 07:20:29;;;;;;;5.05;4.47;;;;;;;10.39;100.00;99261.19;1676248;84;22176;-71
2022/09/22 07:22:59;;;;;;;3.52;2.90;;;;;;;10.41;100.00;99269.73;1700495;83;21045;-72
2022/09/22 07:25:32;;;;;;;6.67;2.62;;;;;;;10.41;100.00;99273.62;1701081;83;21177;-72
2022/09/22 07:28:03;;;;;;;14.95;4.47;;;;;;;10.55;100.00;99266.54;1680537;83;21015;-73
2022/09/22 07:30:27;;;;;;;5.00;3.52;;;;;;;10.69;100.00;99263.70;1673673;83;21091;-74
2022/09/22 07:32:54;;;;;;;4.47;3.15;;;;;;;10.82;100.00;99263.98;1684978;84;21240;-73
2022/09/22 07:35:22;;;;;;;11.12;3.52;;;;;;;10.95;100.00;99266.88;1654030;84;21246;-72
2022/09/22 07:37:55;;;;;;;4.62;2.90;;;;;;;11.05;100.00;99267.67;1708882;82;21073;-72
2022/09/22 07:40:23;;;;;;;4.97;3.58;;;;;;;11.19;100.00;99261.81;1707916;81;20968;-72
2022/09/22 07:42:49;;;;;;;8.00;3.42;;;;;;;11.28;100.00;99260.55;1708844;82;21608;-71
2022/09/22 07:45:17;;;;;;;3.50;2.90;;;;;;;11.31;100.00;99266.45;1703570;83;20982;-72
2022/09/22 07:50:30;;;;;;;8.85;4.05;;;;;;;11.40;100.00;99258.64;1702458;83;21307;-73
2022/09/22 07:52:57;;;;;;;3.27;2.98;;;;;;;11.51;100.00;99258.98;1704997;81;20999;-73
2022/09/22 07:55:24;;;;;;;3.45;3.10;;;;;;;11.57;100.00;99252.19;1706319;83;20999;-73
2022/09/22 07:57:56;;;;;;;13.18;4.97;;;;;;;11.59;100.00;99259.92;1708881;82;21553;-75
2022/09/22 08:00:26;;;;;;;6.25;5.58;;;;;;;11.58;100.00;99256.48;1694367;81;21637;-71
2022/09/22 08:02:56;;;;;;;13.50;4.70;;;;;;;11.59;100.00;99257.32;1708931;81;21256;-72
2022/09/22 08:05:26;;;;;;;4.85;3.77;;;;;;;11.67;100.00;99253.86;1711709;82;21058;-70
2022/09/22 08:07:57;;;;;;;9.10;3.58;;;;;;;11.77;100.00;99253.84;1716584;83;21142;-72
2022/09/22 08:10:24;;;;;;;11.22;5.37;;;;;;;11.94;100.00;99251.23;1695989;82;21261;-72
2022/09/22 08:12:52;;;;;;;6.92;3.72;;;;;;;12.12;100.00;99257.73;1698333;82;21096;-71
2022/09/22 08:15:21;;;;;;;9.30;3.12;;;;;;;12.21;99.42;99255.47;1676045;84;21169;-73
2022/09/22 08:17:49;;;;;;;6.45;3.55;;;;;;;12.24;98.63;99260.54;1657001;84;21058;-73
2022/09/22 08:20:17;;;;;;;6.58;3.47;;;;;;;12.27;98.58;99255.63;1649852;82;21057;-72
2022/09/22 08:22:53;;;;;;;3.65;3.12;;;;;;;12.31;98.31;99261.08;1668287;84;21557;-72
2022/09/22 08:25:20;;;;;;;7.20;3.33;;;;;;;12.38;97.97;99258.08;1670785;83;21115;-72
2022/09/22 08:27:46;;;;;;;6.78;2.58;;;;;;;12.47;96.32;99258.50;1641725;85;21249;-71
2022/09/22 08:30:13;;;;;;;5.50;3.42;;;;;;;12.51;95.17;99259.58;1683629;83;21041;-71
2022/09/22 08:32:40;;;;;;;10.20;3.47;;;;;;;12.48;94.24;99263.64;1676527;82;21086;-73
2022/09/22 08:35:07;;;;;;;9.45;4.83;;;;;;;12.47;94.42;99259.81;1711197;82;21060;-72
2022/09/22 08:37:36;;;;;;;4.42;2.70;;;;;;;12.44;93.99;99251.67;1681391;84;21063;-72
2022/09/22 08:40:07;;;;;;;2.70;2.50;;;;;;;12.46;93.78;99257.66;1690327;83;21845;-73
2022/09/22 08:42:34;;;;;;;9.25;3.17;;;;;;;12.59;93.10;99253.97;1678821;84;21030;-72
2022/09/22 08:45:12;;;;;;;5.00;2.90;;;;;;;12.68;92.88;99246.94;1706905;83;21049;-73
2022/09/22 08:53:44;;;;;;;3.80;2.55;;;;;;;12.75;92.31;99245.23;1730223;82;21143;-74
2022/09/22 08:56:42;;;;;;;2.90;2.60;;;;;;;12.75;92.23;99236.56;1732883;82;21077;-73
2022/09/22 08:59:22;;;;;;;10.00;2.70;;;;;;;12.76;92.12;99243.00;1629469;85;21152;-74
2022/09/22 09:02:19;;;;;;;4.97;2.10;;;;;;;12.85;92.04;99243.41;1664631;84;21045;-75
2022/09/22 09:05:00;;;;;;;2.27;2.08;;;;;;;12.95;92.37;99240.70;1684426;83;21066;-73
2022/09/22 09:07:48;;;;;;;3.72;2.27;;;;;;;13.15;91.15;99242.21;1697330;83;21276;-72
2022/09/22 09:10:41;;;;;;;3.45;2.85;;;;;;;13.17;89.28;99236.47;1695591;83;21060;-73
2022/09/22 09:13:37;;;;;;;9.10;6.37;;;;;;;13.22;88.42;99243.56;1694964;83;21113;-74
2022/09/22 09:16:29;;;;;;;2.10;2.00;;;;;;;13.26;87.83;99240.70;1697178;83;21125;-74
2022/09/22 09:19:07;;;;;;;3.52;2.20;;;;;;;13.32;85.58;99237.75;1692557;83;21636;-73
2022/09/22 09:21:45;;;;;;;3.42;2.47;;;;;;;13.31;85.28;99236.53;1722527;81;21061;-74
2022/09/22 09:24:35;;;;;;;3.50;2.02;;;;;;;13.35;84.56;99240.66;1755987;80;21116;-73
2022/09/22 09:27:11;;;;;;;8.48;2.60;;;;;;;13.33;84.06;99229.00;1755461;80;21143;-73
2022/09/22 09:30:02;;;;;;;5.58;2.30;;;;;;;13.34;83.95;99231.98;1703933;82;22147;-73
2022/09/22 09:32:34;;;;;;;2.92;2.10;;;;;;;13.48;83.07;99233.80;1692155;83;21076;-73
2022/09/22 09:35:01;;;;;;;3.50;2.00;;;;;;;13.62;82.24;99235.16;1719240;81;21477;-74
2022/09/22 09:37:27;;;;;;;6.25;2.60;;;;;;;13.78;81.62;99237.75;1735401;80;21167;-73
2022/09/22 09:39:54;;;;;;;4.50;2.10;;;;;;;13.90;80.85;99237.48;1730951;81;21047;-73
2022/09/22 09:42:28;;;;;;;5.17;2.50;;;;;;;14.01;80.58;99237.22;1751054;80;21587;-74
2022/09/22 09:44:56;;;;;;;6.28;2.50;;;;;;;14.09;79.86;99242.84;1730818;81;21083;-73
2022/09/22 09:47:52;;;;;;;4.72;2.27;;;;;;;14.11;78.89;99240.98;1753351;80;21219;-74
2022/09/22 09:50:20;;;;;;;3.45;2.08;;;;;;;14.11;79.16;99238.83;1755013;81;21025;-73
2022/09/22 09:52:47;;;;;;;7.20;2.00;;;;;;;14.13;79.44;99241.73;1752377;80;21111;-74
2022/09/22 09:55:24;;;;;;;7.20;2.72;;;;;;;14.11;79.05;99236.22;1724096;81;22586;-74
2022/09/22 10:00:29;;;;;;;4.90;2.62;;;;;;;14.10;78.98;99241.91;1752298;80;21607;-72
2022/09/22 10:00:58;;;;;;;2.15;1.75;;;;;;;14.15;78.39;99246.87;1752388;80;21431;-73
2022/09/22 10:03:30;;;;;;;3.00;1.72;;;;;;;14.17;77.38;99247.63;1753836;80;21499;-72
2022/09/22 10:06:01;;;;;;;5.15;2.62;;;;;;;14.13;77.42;99252.66;1757604;80;20985;-73
2022/09/22 10:08:33;;;;;;;2.85;1.80;;;;;;;14.16;76.13;99249.88;1747441;80;21172;-73
2022/09/22 10:11:00;;;;;;;5.08;1.67;;;;;;;14.22;75.85;99247.33;1738007;81;21022;-72
2022/09/22 10:13:38;;;;;;;1.80;1.30;;;;;;;14.34;75.83;99251.38;1722200;81;21769;-73
2022/09/22 10:16:12;;;;;;;1.92;1.35;;;;;;;14.48;74.15;99257.95;1710109;82;21035;-72
2022/09/22 10:18:39;;;;;;;4.22;1.20;;;;;;;14.48;73.23;99244.88;1703212;83;21112;-73
2022/09/22 10:21:19;;;;;;;5.08;1.77;;;;;;;14.42;73.78;99255.70;1699517;82;21607;-72
2022/09/22 10:23:52;;;;;;;6.45;2.05;;;;;;;14.36;73.92;99250.83;1691746;83;21044;-73
2022/09/22 10:26:27;;;;;;;3.50;2.20;;;;;;;14.21;75.00;99249.57;1698209;83;21133;-73
2022/09/22 10:29:21;;;;;;;3.50;2.37;;;;;;;14.03;75.69;99248.89;1701197;83;21009;-74
2022/09/22 10:32:06;;;;;;;4.08;2.20;;;;;;;13.87;76.42;99248.12;1635046;84;21090;-72
2022/09/22 10:34:36;;;;;;;10.68;2.40;;;;;;;13.73;77.24;99241.93;1671508;84;21082;-73
2022/09/22 10:37:09;;;;;;;4.90;2.02;;;;;;;13.72;78.27;99249.86;1717832;81;21037;-74
2022/09/22 10:39:53;;;;;;;5.40;1.70;;;;;;;13.69;77.46;99242.19;1739646;81;21142;-73
2022/09/22 10:42:34;;;;;;;2.33;1.85;;;;;;;13.65;77.42;99240.20;1735570;81;21069;-73
2022/09/22 10:45:15;;;;;;;8.50;2.22;;;;;;;13.59;78.71;99241.05;1718778;82;21032;-73
2022/09/22 10:48:04;;;;;;;5.55;2.08;;;;;;;13.48;78.93;99240.34;1718824;81;21093;-77
2022/09/22 10:51:15;;;;;;;6.85;2.40;;;;;;;13.44;78.16;99242.73;1712563;81;21085;-73
2022/09/22 10:54:10;;;;;;;5.25;1.80;;;;;;;13.36;78.87;99244.50;1726664;81;21885;-74
2022/09/22 10:56:48;;;;;;;8.30;2.10;;;;;;;13.45;78.57;99248.34;1679189;84;21173;-76
2022/09/22 10:59:37;;;;;;;4.20;2.00;;;;;;;13.59;78.58;99247.09;1693804;81;21198;-73
2022/09/22 11:02:49;;;;;;;9.08;1.92;;;;;;;13.59;78.58;99247.09;1724397;81;22357;-73
2022/09/22 11:14:51;;;;;;;7.42;1.82;;;;;;;13.69;77.33;99247.41;1728771;81;21316;-77
2022/09/22 11:17:32;;;;;;;10.18;2.00;;;;;;;13.54;77.91;99240.00;1720098;81;21565;-77
2022/09/22 11:20:07;;;;;;;3.30;1.55;;;;;;;13.54;77.91;99240.00;1672741;84;21708;-77
2022/09/22 11:23:01;;;;;;;1.80;1.50;;;;;;;13.53;78.40;99243.53;1718055;81;21226;-72
2022/09/22 11:25:46;;;;;;;6.97;2.20;;;;;;;13.43;78.42;99243.66;1713283;81;21112;-72
2022/09/22 11:28:42;;;;;;;7.40;1.70;;;;;;;13.43;78.42;99243.66;1668976;81;21105;-72
2022/09/22 11:31:17;;;;;;;9.18;2.00;;;;;;;13.41;79.15;99245.52;1716113;81;21175;-73
2022/09/22 11:34:16;;;;;;;5.97;1.70;;;;;;;13.35;79.66;99243.27;1676889;83;21145;-75
2022/09/22 11:37:00;;;;;;;3.42;1.50;;;;;;;13.28;79.42;99241.92;1680117;84;21280;-74
2022/09/22 11:39:55;;;;;;;3.50;1.25;;;;;;;13.14;79.55;99242.67;1671170;82;21053;-73
2022/09/22 11:42:47;;;;;;;3.10;1.75;;;;;;;13.01;80.79;99244.25;1715631;82;21513;-75
2022/09/22 11:45:28;;;;;;;2.27;1.90;;;;;;;12.96;81.58;99248.91;1694306;82;21150;-73
2022/09/22 11:48:03;;;;;;;5.42;2.47;;;;;;;12.91;82.11;99245.70;1668914;84;21073;-73
2022/09/22 11:51:03;;;;;;;5.45;1.52;;;;;;;12.87;82.40;99245.02;1657876;84;21735;-74
2022/09/22 11:53:47;;;;;;;4.35;1.80;;;;;;;12.89;81.56;99239.25;1703879;82;21060;-76
2022/09/22 11:56:46;;;;;;;2.35;1.57;;;;;;;12.93;81.79;99242.08;1703155;81;21689;-74
2022/09/22 11:59:41;;;;;;;3.10;1.50;;;;;;;13.00;81.30;99239.95;1688752;83;21096;-76
2022/09/22 12:02:19;;;;;;;3.87;1.80;;;;;;;13.08;81.02;99237.78;1686806;83;21093;-74
2022/09/22 12:05:08;;;;;;;4.35;1.92;;;;;;;13.18;81.25;99236.39;1688820;81;21981;-74
2022/09/22 12:07:44;;;;;;;4.67;1.90;;;;;;;13.28;80.78;99226.25;1709002;81;21595;-77
2022/09/22 12:10:22;;;;;;;5.20;1.80;;;;;;;13.39;80.39;99231.70;1722617;81;21104;-74
2022/09/22 12:12:50;;;;;;;9.15;2.30;;;;;;;13.49;80.61;99221.59;1718549;82;21572;-74
2022/09/22 12:15:49;;;;;;;7.25;2.45;;;;;;;13.58;80.49;99219.77;1727968;81;21520;-76
2022/09/22 12:18:51;;;;;;;2.20;2.00;;;;;;;13.63;80.22;99216.39;1723650;81;21231;-72
2022/09/22 12:21:57;;;;;;;11.75;3.65;;;;;;;13.65;79.80;99213.23;1723540;80;20974;-75
2022/09/22 12:24:24;;;;;;;9.60;3.15;;;;;;;13.60;79.42;99209.57;1700536;83;21539;-75
2022/09/22 12:26:50;;;;;;;3.72;2.05;;;;;;;13.64;78.11;99208.47;1717635;81;21047;-76
2022/09/22 12:29:25;;;;;;;5.40;2.12;;;;;;;13.64;78.11;99208.47;1715032;81;21041;-76
2022/09/22 12:31:57;;;;;;;4.42;1.75;;;;;;;13.79;77.27;99209.34;1724994;82;21099;-78
2022/09/22 12:34:29;;;;;;;3.90;2.37;;;;;;;13.79;77.27;99209.34;1719896;81;21076;-74
2022/09/22 12:37:10;;;;;;;11.55;3.58;;;;;;;13.93;76.73;99205.47;1675220;84;21109;-73
2022/09/22 12:39:42;;;;;;;7.00;2.15;;;;;;;13.93;76.73;99205.47;1676068;84;21684;-76
2022/09/22 12:42:34;;;;;;;6.53;3.30;;;;;;;14.00;75.82;99205.45;1675020;84;21147;-78
2022/09/22 12:45:07;;;;;;;9.28;2.70;;;;;;;14.00;75.70;99201.53;1705412;81;21206;-76
2022/09/22 12:47:40;;;;;;;3.83;2.02;;;;;;;14.02;75.85;99201.45;1690285;84;21064;-75